Camp Elliot (770) Station Data

Red Flag Warning: No
Fire Weather Zone: 243
SDGE Region: Beach Cities
Lat/Lon: 32.852/-117.118

Observations

Time Wind Speed/Gust Temp(F) RH Fuel Moist Fuel Temp(F) Dewpt(F) Tmax(F) Tmin(F) Accum Precip 10-min Precip SL Press(mb)
6/27 5:00pm 293 6 G 10 81° 39% - - 54° 89.2° 60.6° - - -
6/27 4:50pm 298 7 G 10 81° 39% - - 53° 89.2° 60.6° - - -
6/27 4:40pm 299 6 G 10 81° 37% - - 52° 89.2° 60.6° - - -
6/27 4:30pm 275 6 G 12 82° 32% - - 49° 89.2° 60.6° - - -
6/27 4:20pm 267 6 G 10 83° 31% - - 49° 89.2° 60.6° - - -
6/27 4:10pm 268 6 G 10 82° 33% - - 50° 89.2° 60.6° - - -
6/27 4:00pm 275 7 G 11 82° 33% - - 50° 89.2° 60.6° - - -
6/27 3:50pm 274 5 G 9 83° 34% - - 52° 89.2° 60.6° - - -
6/27 3:40pm 285 6 G 12 82° 35% - - 52° 89.2° 60.6° - - -
6/27 3:30pm 279 6 G 12 82° 37% - - 53° 89.2° 60.6° - - -
6/27 3:20pm 277 6 G 10 82° 35% - - 52° 89.2° 60.6° - - -
6/27 3:10pm 280 5 G 10 82° 37% - - 53° 89.2° 60.6° - - -
6/27 3:00pm 273 7 G 13 82° 42% - - 56° 89.2° 60.6° - - -
6/27 2:50pm 269 7 G 11 82° 44% - - 57° 89.2° 60.6° - - -
6/27 2:40pm 269 7 G 13 82° 45% - - 58° 89.2° 60.6° - - -
6/27 2:30pm 274 8 G 13 83° 43% - - 58° 89.2° 60.6° - - -
6/27 2:20pm 256 8 G 12 83° 44% - - 59° 89.2° 60.6° - - -
6/27 2:10pm 237 9 G 14 83° 43% - - 59° 89.2° 60.6° - - -
6/27 2:00pm 239 9 G 14 85° 41% - - 58° 89.2° 60.6° - - -
6/27 1:50pm 227 8 G 14 85° 39% - - 57° 89.2° 60.6° - - -
6/27 1:40pm 233 8 G 12 86° 36% - - 56° 89.2° 60.6° - - -
6/27 1:30pm 246 7 G 12 86° 34% - - 54° 89.2° 60.6° - - -
6/27 1:20pm 240 8 G 14 84° 38% - - 56° 89.2° 60.6° - - -
6/27 1:10pm 230 9 G 14 85° 38% - - 57° 89.2° 60.6° - - -
6/27 1:00pm 222 7 G 13 86° 34% - - 55° 89.2° 60.6° - - -
6/27 12:50pm 235 8 G 12 87° 33% - - 54° 89.2° 60.6° - - -
6/27 12:40pm 233 7 G 13 87° 33% - - 55° 89.2° 60.6° - - -
6/27 12:30pm 223 8 G 12 88° 27% - - 50° 89.2° 60.6° - - -
6/27 12:20pm 237 6 G 11 89° 25% - - 48° 89.2° 60.6° - - -
6/27 12:10pm 250 5 G 11 88° 26% - - 49° 89.2° 60.6° - - -
6/27 12:00pm 230 7 G 11 87° 29% - - 51° 88.6° 60.6° - - -
6/27 11:50am 218 5 G 10 87° 30% - - 52° 88° 60.6° - - -
6/27 11:40am 253 5 G 9 87° 31% - - 53° 87.5° 60.6° - - -
6/27 11:30am 204 4 G 7 86° 34% - - 54° 87.1° 60.6° - - -
6/27 11:20am 233 6 G 10 86° 34% - - 54° 87.1° 60.6° - - -
6/27 11:10am 227 5 G 9 86° 33% - - 53° 87.1° 60.6° - - -
6/27 11:00am 219 6 G 10 86° 32% - - 53° 87.1° 60.6° - - -
6/27 10:50am 225 5 G 10 86° 32% - - 52° 86.6° 60.6° - - -
6/27 10:40am 218 4 G 7 86° 30% - - 51° 86.6° 60.6° - - -
6/27 10:30am 204 4 G 8 86° 31% - - 52° 86.4° 60.6° - - -
6/27 10:20am 232 4 G 8 85° 33% - - 53° 85.2° 60.6° - - -
6/27 10:10am 224 4 G 8 84° 36% - - 54° 84.8° 60.6° - - -
6/27 10:00am 215 4 G 8 84° 36% - - 54° 84.7° 60.6° - - -
6/27 9:50am 217 4 G 9 84° 33% - - 52° 84.7° 60.6° - - -
6/27 9:40am 230 5 G 9 84° 31% - - 51° 84.7° 60.6° - - -
6/27 9:30am 240 4 G 8 84° 31% - - 50° 84.7° 60.6° - - -
6/27 9:20am 302 4 G 7 83° 33% - - 51° 83.7° 60.6° - - -
6/27 9:10am 299 4 G 8 83° 30% - - 49° 83.3° 60.6° - - -
6/27 9:00am 282 3 G 8 82° 30% - - 48° 82.8° 60.6° - - -
6/27 8:50am 288 3 G 6 81° 30% - - 47° 82.8° 60.6° - - -
6/27 8:40am 313 2 G 5 82° 28% - - 45° 82.8° 60.6° - - -
6/27 8:30am 225 1 G 3 80° 30% - - 46° 81.3° 60.6° - - -
6/27 8:20am 297 1 G 3 79° 32% - - 46° 79.3° 60.6° - - -
6/27 8:10am 315 1 G 3 77° 33% - - 46° 78.7° 60.6° - - -
6/27 8:00am 270 1 G 2 76° 36% - - 48° 77° 60.6° - - -
6/27 7:40am 216 1 G 2 73° 48% - - 52° 74.3° 60.6° - - -
6/27 7:30am 267 1 G 2 72° 52% - - 53° 73.7° 60.6° - - -
6/27 7:20am 293 1 G 3 71° 55% - - 54° 73.7° 60.6° - - -
6/27 7:10am 306 2 G 3 70° 55% - - 54° 73.7° 60.6° - - -
6/27 7:00am 40 1 G 3 70° 56% - - 54° 73.7° 60.6° - - -
6/27 6:50am 17 2 G 3 69° 58% - - 54° 73.7° 60.6° - - -
6/27 6:40am 45 2 G 4 68° 59% - - 53° 73.7° 60.6° - - -
6/27 6:30am 30 1 G 2 67° 60% - - 53° 73.7° 60.6° - - -
6/27 6:20am 13 1 G 2 67° 61% - - 53° 73.7° 60.6° - - -
6/27 6:10am 28 1 G 2 66° 62% - - 52° 73.7° 60.6° - - -
6/27 6:00am 30 1 G 2 65° 64% - - 52° 73.7° 60.6° - - -
6/27 5:50am 45 1 G 3 64° 64% - - 51° 73.7° 60.6° - - -
6/27 5:40am 112 1 G 3 64° 63% - - 51° 73.7° 60.6° - - -
6/27 5:30am 154 2 G 3 64° 61% - - 51° 73.7° 60.6° - - -
6/27 5:20am 91 1 G 2 64° 59% - - 50° 73.7° 60.6° - - -
6/27 5:10am 82 1 G 1 64° 60% - - 50° 73.7° 60.6° - - -
6/27 5:00am 25 1 G 2 63° 61% - - 50° 73.7° 60.6° - - -
6/27 4:50am 58 1 G 2 63° 58% - - 48° 73.7° 60.6° - - -
6/27 4:40am 100 2 G 3 62° 56% - - 47° 73.7° 60.6° - - -
6/27 4:30am 134 3 G 4 62° 58% - - 47° 73.7° 60.6° - - -
6/27 4:20am 147 2 G 3 61° 60% - - 47° 73.7° 60.6° - - -
6/27 4:10am 169 1 G 3 63° 58% - - 48° 73.7° 61.9° - - -
6/27 4:00am 360 1 G 4 64° 58% - - 48° 73.7° 62.8° - - -
6/27 3:50am 357 2 G 5 65° 55% - - 49° 73.7° 64.4° - - -
6/27 3:40am 45 2 G 4 65° 53% - - 47° 73.7° 64.4° - - -
6/27 3:30am 71 3 G 4 65° 53% - - 47° 73.7° 64.4° - - -
6/27 3:20am 30 3 G 3 65° 51% - - 47° 73.7° 64.4° - - -
6/27 3:10am 5 3 G 4 66° 49% - - 46° 73.7° 65.6° - - -
6/27 3:00am 0 2 G 3 66° 46% - - 44° 73.7° 65.6° - - -
6/27 2:50am 343 2 G 2 67° 43% - - 44° 73.7° 66.5° - - -
6/27 2:40am 341 1 G 2 68° 44% - - 45° 73.7° 66.9° - - -
6/27 2:30am 42 1 G 2 67° 45% - - 46° 73.7° 66.9° - - -
6/27 2:20am 333 1 G 2 67° 49% - - 48° 73.7° 66.9° - - -
6/27 2:10am 359 0 G 1 67° 47% - - 46° 73.7° 66.9° - - -
6/27 2:00am 168 1 G 2 67° 47% - - 46° 73.7° 67° - - -
6/27 1:50am 192 1 G 2 68° 50% - - 48° 73.7° 67.4° - - -
6/27 1:40am 246 1 G 2 68° 47% - - 47° 73.7° 67.7° - - -
6/27 1:30am 246 0 G 2 69° 46% - - 47° 73.7° 68.1° - - -
6/27 1:20am 254 0 G 1 69° 45% - - 47° 73.7° 68.5° - - -
6/27 1:10am 219 0 G 1 70° 44% - - 47° 73.7° 69.5° - - -
6/27 1:00am 22 1 G 1 70° 43% - - 47° 73.7° 69.8° - - -
6/27 12:50am 10 2 G 2 70° 42% - - 46° 73.7° 69.9° - - -
6/27 12:40am 14 3 G 4 71° 40% - - 45° 73.7° 70.1° - - -
6/27 12:30am 342 4 G 5 71° 37% - - 44° 73.7° 70.7° - - -
6/27 12:20am 325 3 G 4 71° 34% - - 42° 73.7° 70.7° - - -
6/27 12:10am 308 2 G 3 72° 35% - - 43° 73.7° 70.7° - - -
6/27 12:00am 307 3 G 4 73° 40% - - 47° 92.1° 62.6° - - -
6/26 11:50pm 323 1 G 3 72° 39% - - 46° 92.1° 62.6° - - -
6/26 11:40pm 164 0 G 1 73° 36% - - 45° 92.1° 62.6° - - -
6/26 11:30pm 54 1 G 2 74° 38% - - 46° 92.1° 62.6° - - -
6/26 11:20pm 29 2 G 3 73° 47% - - 52° 92.1° 62.6° - - -
6/26 11:10pm 5 1 G 2 72° 48% - - 51° 92.1° 62.6° - - -
6/26 11:00pm 1 1 G 2 71° 45% - - 49° 92.1° 62.6° - - -
6/26 10:50pm 3 2 G 3 70° 44% - - 48° 92.1° 62.6° - - -
6/26 10:40pm 314 3 G 4 71° 46% - - 49° 92.1° 62.6° - - -
6/26 10:30pm 289 3 G 4 72° 47% - - 50° 92.1° 62.6° - - -
6/26 10:20pm 212 1 G 3 73° 48% - - 52° 92.1° 62.6° - - -
6/26 10:10pm 57 0 G 1 73° 48% - - 52° 92.1° 62.6° - - -
6/26 10:00pm 186 0 G 1 74° 47% - - 52° 92.1° 62.6° - - -
6/26 9:50pm 35 1 G 2 74° 46% - - 52° 92.1° 62.6° - - -
6/26 9:40pm 19 2 G 3 74° 51% - - 54° 92.1° 62.6° - - -
6/26 9:30pm 323 2 G 4 74° 54% - - 56° 92.1° 62.6° - - -
6/26 9:20pm 312 3 G 4 73° 55% - - 56° 92.1° 62.6° - - -
6/26 9:10pm 312 4 G 6 74° 48% - - 53° 92.1° 62.6° - - -
6/26 9:00pm 315 4 G 5 75° 43% - - 51° 92.1° 62.6° - - -
6/26 8:50pm 296 4 G 5 76° 41% - - 51° 92.1° 62.6° - - -
6/26 8:40pm 263 3 G 4 77° 40% - - 51° 92.1° 62.6° - - -
6/26 8:30pm 257 3 G 4 77° 40% - - 51° 92.1° 62.6° - - -
6/26 8:20pm 254 4 G 4 78° 39% - - 51° 92.1° 62.6° - - -
6/26 8:10pm 247 3 G 4 79° 39% - - 52° 92.1° 62.6° - - -
6/26 8:00pm 246 3 G 3 79° 38% - - 51° 92.1° 62.6° - - -
6/26 7:50pm 260 3 G 4 81° 34% - - 50° 92.1° 62.6° - - -
6/26 7:40pm 299 3 G 5 82° 30% - - 47° 92.1° 62.6° - - -
6/26 7:30pm 301 4 G 7 82° 29% - - 46° 92.1° 62.6° - - -
6/26 7:20pm 297 5 G 7 83° 29% - - 47° 92.1° 62.6° - - -
6/26 7:10pm 292 4 G 7 84° 31% - - 50° 92.1° 62.6° - - -
6/26 7:00pm 306 5 G 7 84° 28% - - 48° 92.1° 62.6° - - -
6/26 6:50pm 309 6 G 9 84° 28% - - 47° 92.1° 62.6° - - -
6/26 6:40pm 297 7 G 9 85° 27% - - 47° 92.1° 62.6° - - -
6/26 6:30pm 290 6 G 10 85° 26% - - 46° 92.1° 62.6° - - -
6/26 6:20pm 285 6 G 10 85° 25% - - 45° 92.1° 62.6° - - -
6/26 6:10pm 294 7 G 12 84° 23% - - 43° 92.1° 62.6° - - -
6/26 6:00pm 300 7 G 12 85° 23% - - 43° 92.1° 62.6° - - -
6/26 5:50pm 296 8 G 13 85° 24% - - 44° 92.1° 62.6° - - -
6/26 5:40pm 307 8 G 12 86° 23% - - 43° 92.1° 62.6° - - -
6/26 5:30pm 307 7 G 11 86° 22% - - 43° 92.1° 62.6° - - -
6/26 5:20pm 291 8 G 13 86° 22% - - 43° 92.1° 62.6° - - -
6/26 5:10pm 299 7 G 11 87° 23% - - 45° 92.1° 62.6° - - -
6/26 5:00pm 297 7 G 12 87° 23% - - 45° 92.1° 62.6° - - -
6/26 4:50pm 288 8 G 14 87° 23% - - 45° 92.1° 62.6° - - -
6/26 4:40pm 292 8 G 13 88° 21% - - 43° 92.1° 62.6° - - -
6/26 4:30pm 294 9 G 15 88° 21% - - 43° 92.1° 62.6° - - -
6/26 4:20pm 311 7 G 12 89° 20% - - 43° 92.1° 62.6° - - -
6/26 4:10pm 314 8 G 14 89° 19% - - 41° 92.1° 62.6° - - -
6/26 4:00pm 311 8 G 13 88° 22% - - 45° 92.1° 62.6° - - -
6/26 3:50pm 325 10 G 14 89° 23% - - 46° 92.1° 62.6° - - -
6/26 3:40pm 301 8 G 13 89° 26% - - 49° 92.1° 62.6° - - -
6/26 3:30pm 310 8 G 11 90° 25% - - 49° 92.1° 62.6° - - -
6/26 3:20pm 311 8 G 13 89° 26% - - 50° 92.1° 62.6° - - -
6/26 3:10pm 323 9 G 13 89° 26% - - 50° 92.1° 62.6° - - -
6/26 3:00pm 304 8 G 13 91° 27% - - 53° 92.1° 62.6° - - -
6/26 2:50pm 286 8 G 12 91° 28% - - 53° 92.1° 62.6° - - -
6/26 2:40pm 293 8 G 12 91° 29% - - 54° 92.1° 62.6° - - -
6/26 2:30pm 292 8 G 13 91° 30% - - 55° 92.1° 62.6° - - -
6/26 2:20pm 295 8 G 13 91° 30% - - 56° 92.1° 62.6° - - -
6/26 2:10pm 260 6 G 12 91° 33% - - 58° 92.1° 62.6° - - -
6/26 2:00pm 267 6 G 12 91° 32% - - 57° 91.6° 62.6° - - -
6/26 1:50pm 272 4 G 10 90° 32% - - 56° 90.9° 62.6° - - -
6/26 1:40pm 232 4 G 8 89° 32% - - 55° 89.8° 62.6° - - -
6/26 1:30pm 247 4 G 8 88° 32% - - 55° 88.9° 62.6° - - -
6/26 1:20pm 280 4 G 9 87° 33% - - 55° 87.9° 62.6° - - -
6/26 1:10pm 225 4 G 9 86° 35% - - 55° 86.9° 62.6° - - -
6/26 1:00pm 234 5 G 10 85° 37% - - 56° 85.8° 62.6° - - -
6/26 12:50pm 232 6 G 11 85° 38% - - 57° 85.8° 62.6° - - -
6/26 12:40pm 241 6 G 12 85° 38% - - 56° 85.3° 62.6° - - -
6/26 12:30pm 219 5 G 9 84° 38% - - 56° 85° 62.6° - - -
6/26 12:20pm 218 5 G 9 84° 39% - - 56° 84.6° 62.6° - - -
6/26 12:10pm 225 4 G 9 83° 40% - - 57° 83.9° 62.6° - - -
6/26 12:00pm 230 5 G 9 82° 43% - - 57° 82.7° 62.6° - - -
6/26 11:50am 244 5 G 10 82° 44% - - 58° 82.7° 62.6° - - -
6/26 11:40am 234 6 G 11 81° 45% - - 58° 82.7° 62.6° - - -
6/26 11:30am 242 5 G 11 82° 46% - - 59° 82.7° 62.6° - - -
6/26 11:20am 215 5 G 9 81° 47% - - 59° 82.7° 62.6° - - -
6/26 11:10am 220 5 G 11 81° 48% - - 59° 82.7° 62.6° - - -
6/26 11:00am 221 6 G 10 80° 50% - - 60° 82.7° 62.6° - - -
6/26 10:50am 228 7 G 11 81° 49% - - 60° 82.7° 62.6° - - -
6/26 10:40am 211 5 G 9 82° 47% - - 59° 82.7° 62.6° - - -
6/26 10:30am 222 6 G 10 82° 47% - - 60° 82.7° 62.6° - - -
6/26 10:20am 218 5 G 9 81° 47% - - 59° 82.7° 62.6° - - -
6/26 10:10am 202 4 G 9 81° 48% - - 60° 82.7° 62.6° - - -
6/26 10:00am 198 6 G 10 82° 47% - - 60° 82.7° 62.6° - - -
6/26 9:50am 223 6 G 9 82° 45% - - 59° 82.7° 62.6° - - -
6/26 9:40am 195 5 G 9 82° 44% - - 58° 82.7° 62.6° - - -
6/26 9:30am 184 7 G 10 82° 44% - - 58° 82.1° 62.6° - - -
6/26 9:20am 188 5 G 9 81° 46% - - 59° 81.5° 62.6° - - -
6/26 9:10am 185 5 G 9 81° 46% - - 59° 81.4° 62.6° - - -
6/26 9:00am 185 4 G 7 81° 46% - - 58° 81.4° 62.6° - - -
6/26 8:50am 177 3 G 6 80° 47% - - 58° 80.7° 62.6° - - -
6/26 8:40am 214 2 G 4 79° 49% - - 58° 79.6° 62.6° - - -
6/26 8:30am 176 3 G 5 79° 51% - - 59° 79.1° 62.6° - - -
6/26 8:20am 182 3 G 5 78° 53% - - 59° 78.2° 62.6° - - -
6/26 8:10am 245 1 G 3 76° 55% - - 59° 77.2° 62.6° - - -
6/26 8:00am 239 1 G 3 75° 56% - - 59° 76.1° 62.6° - - -
6/26 7:50am 267 2 G 3 74° 59% - - 59° 75° 62.6° - - -
6/26 7:40am 288 1 G 4 73° 60% - - 59° 73.9° 62.6° - - -
6/26 7:30am 313 3 G 5 72° 62% - - 58° 72.4° 62.6° - - -
6/26 7:20am 328 3 G 5 71° 64% - - 58° 71.8° 62.6° - - -
6/26 7:10am 334 4 G 5 69° 67% - - 58° 70.4° 62.6° - - -
6/26 7:00am 338 3 G 5 68° 67% - - 57° 69° 62.6° - - -
6/26 6:50am 344 3 G 4 67° 70% - - 57° 67.7° 62.6° - - -
6/26 6:40am 333 2 G 4 66° 72% - - 57° 66.6° 62.6° - - -
6/26 6:30am 325 2 G 3 65° 73% - - 57° 66.6° 62.6° - - -
6/26 6:20am 249 1 G 3 65° 76% - - 57° 66.6° 62.6° - - -
6/26 6:10am 203 1 G 4 65° 75% - - 57° 66.6° 62.6° - - -
6/26 6:00am 359 1 G 2 65° 76% - - 57° 66.6° 62.6° - - -